Terminal Aerodrome Forecast
Issued by NWS

Home | Current Version | Previous Version | Text Only | Print | Product List | Glossary On
Versions: 1 2 3 4 5 6 7 8 9 10 11 12 13 14 15 16 17 18 19 20 21 22 23 24 25 26 27 28 29 30
000
FTUS43 KDLH 230520
TAFBRD
TAF
KBRD 230520Z 2306/2406 22008KT P6SM VCTS BKN080CB
      TEMPO 2306/2308 22020G38KT 4SM TSRA BR BKN040CB
     FM230900 26004KT 4SM BR BKN050
     FM231500 28004KT P6SM SCT008 OVC015
     FM232000 01005KT P6SM VCTS BKN025CB
     FM240100 02005KT 4SM BR BKN008
     FM240500 03005KT 3SM BR OVC004=

USA.gov is the U.S. government's official web portal to all federal, state and local government web resources and services.